Terminal Aerodrome Forecast
Issued by NWS Riverton, WY

Home | Current Version | Previous Version | Text Only | Print | Product List | Glossary On
Versions: 1 2 3 4 5 6 7 8 9 10 11 12 13
149
FTUS45 KRIW 062323
TAFRIW
TAF
KRIW 062323Z 0700/0724 34011KT P6SM FEW120 SCT200
     FM070200 31024G32KT P6SM SCT120 BKN200
     FM071000 30012G20KT P6SM SCT200
     FM071500 VRB06KT P6SM SCT250=

USA.gov is the U.S. government's official web portal to all federal, state and local government web resources and services.